Details From GCLP - Gran Canaria
To GCLA - La Palma
Flight Number -
Tags decoded
Created
Modified
Stats Distance 161 nm / 298 km
Max Altitude 0 ft / 0 m
Waypoints 4
Social Downloads 2
Likes 0
Share VATSIM

Download

Looking for another format? Having issues loading an existing format? Contact us
Advertisement - Login to hide

Notes

Requested: GCLP TFS DRANO LPC GCLA

Route

GCLP DRANO LPC GCLA

ID Type Via Altitude Latitude Longitude Leg Dist Tot Dist Heading (true) Name
O GCLP APT - 0 ft / 0 m 27.93154˚ -15.38559˚ - 0 nm - Gran Canaria
DRANO FIX - 0 ft / 0 m 27.65565˚ -15.50677˚ 17 nm 17 nm 201° / 201° -
LPC VOR - 0 ft / 0 m 27.82853˚ -15.43225˚ 11 nm 28 nm 21° / 21° GRAN CANARIA VOR-DME
O GCLA APT - 0 ft / 0 m 28.62648˚ -17.75561˚ 131 nm 160 nm 292° / 291° La Palma

Altitude Profile

Advertisement - Login to hide

GCLP

Details ICAO GCLP (LPA)
Name Gran Canaria
Region Canary Islands
Timezone Atlantic/Canary (UTC+0.0)
Stats Elevation 77 ft / 23 m (AMSL)
Location 27.931544° -15.385592°
Runways 2
Magnetic Variation 4.685° W

METAR

GCLP 120300Z 01016KT 9999 FEW025 SCT030 BKN070 17/13 Q1016 NOSIG

Decode

TAF

TAF GCLP 120200Z 1203/1303 36018KT 9999 FEW025 BKN045 TX21/1215Z TN16/1206Z PROB40 TEMPO 1203/1303 36025G35KT

Decode

Departure Runways

ID Width Length Bearing (true) Bearing (mag) Surface Threshold Offset Overrun Length
03L 148 ft / 45 m 10,203 ft / 3,110 m 21.33° 26.02° Asphalt 0 ft / 0 m 656 ft / 200 m
03R 148 ft / 45 m 10,200 ft / 3,109 m 21.32° 26.01° Asphalt 0 ft / 0 m 673 ft / 205 m
21L 148 ft / 45 m 10,200 ft / 3,109 m 201.33° 206.02° Asphalt 0 ft / 0 m 689 ft / 210 m
21R 148 ft / 45 m 10,203 ft / 3,110 m 201.33° 206.02° Asphalt 0 ft / 0 m 755 ft / 230 m

GCLA

Details ICAO GCLA (SPC)
Name La Palma
Region Canary Islands
Timezone Atlantic/Canary (UTC+0.0)
Stats Elevation 107 ft / 33 m (AMSL)
Location 28.626480° -17.755613°
Runways 1
Magnetic Variation 5.523° W

METAR

GCLA 120300Z AUTO 02021KT 340V050 9999 FEW038/// SCT044/// BKN057/// 19/12 Q1018

Decode

TAF

TAF GCLA 120200Z 1203/1303 02018KT 9999 SCT030 BKN050 TX21/1213Z TN17/1206Z TEMPO 1203/1215 02018G30KT

Decode

Destination Runways

ID Width Length Bearing (true) Bearing (mag) Surface Threshold Offset Overrun Length
01 148 ft / 45 m 7,240 ft / 2,207 m 359.02° 4.54° Asphalt 0 ft / 0 m 279 ft / 85 m
19 148 ft / 45 m 7,240 ft / 2,207 m 179.02° 184.54° Asphalt 0 ft / 0 m 236 ft / 72 m

Popular Alternatives